Firminopolis, Brazil
Current Conditions -  °F | °C
As of 10:00 AM on Saturday 25 Oct 2014 (Local Time) from SBGO Reporting Station
Light Rain Light Rain  
Wind Chill: 70°   Ceiling: 9000
Heat Index: 70°   Visibility: 4mi
Dew Point: 64°   Wind: 7mph
Humidity: 83%   Direction: 160°SSE
Pressure: 30.03"   Gusts: NA
Location:  16.68°S, 50.31°W
Report Text: SBGO 251200Z 16006KT 6000 2000N -RA FEW009 BKN090 21/18 Q1017
Loading
Personal Weather Stations






























Interactive Weather Map
Tropical Storm Tracking
New forecast layout! Learn more

10-Day Weather Forecast

Advertisements
Track Severe Weather on mobile